Airfield :
LOGIN :

Register | Disclaimer

   EN    FR    IT 

 










Legend :    VFR   Marginal VFR   IFR   Intensive IFR   Very Intensive IFR
Visi :
Ceiling :
>= 8 km
>= 3000ft
5 to 8 km
1000 to 3000 ft
1500m to 5 km
500 to 1000 ft
800 to 1500m
200 to 500 ft
< 800m
< 200 ft
Symbols :   Thunderstorms  Fog  Heavy snow  Heavy precipitations  Wind > 20 kt
SIGMETs :     Misc.  Thunderstorms  Icing  Turbulence  Mountain Waves  Volcanic Ashes






- Airport Elevation : 183 ft
- IATA code : HAJ


EDDV - Hanover/Langenhagen Int.

CURRENT METAR :
  • 201350Z 31012KT 9999 FEW018CB BKN028 02/M01 Q1021 TEMPO 30020G35KT 2500 SHSN BKN012CB

EXPIRED METARs :
  • 201320Z 31020KT 9999 FEW018CB BKN028 03/M01 Q1020 TEMPO 30020G35KT 2500 SHSN BKN012CB
  • 201250Z 30017KT 9999 FEW020CB BKN028 03/M01 Q1020 TEMPO 30020G35KT 2500 SHSN BKN012CB
  • 201220Z 28013KT 9999 FEW008 FEW019CB BKN031 03/00 Q1021 TEMPO 30020G35KT 2500 SHSN BKN012CB
  • 201150Z 29011KT 250V320 9999 FEW005 SCT019CB 02/M00 Q1021 RESHSN TEMPO 30020G35KT 2500 SHSN BKN012CB
  • 201120Z 29015KT 3400 SHSN FEW005 BKN014CB 01/M01 Q1021 TEMPO 30020G35KT 2500 SCT020
  • 201050Z 29014KT 9000 -SHSN FEW005 BKN020CB 02/M01 Q1021 TEMPO 30020G35KT 2500 SHSN BKN012CB

TAF TAF EDDV
Valid from the 20 at 12:00 until the 21 at 12:00 UTC


201100Z 2012/2112 30015G25KT 9999 SCT025
TEMPO 2012/2017 31020G35KT 2500 SHSNRA FEW007 BKN012CB
PROB30
TEMPO 2012/2017 1000 +SHSN BKN005CB
BECMG 2017/2020 29008KT
TEMPO 2102/2109 32013KT 2500 SHSN BKN012CB



MET'MAP, your aeronautical weather chart ! - Copyright ORBIFLY December 2007 - Disclaimer

ORBIFLY MET'MAP TEAM :

Programming & Development : Alexandra Zaïnal
Concept & original design : Baudouin d'Aumeries
Assistance for programming : Marc-Olivier Méhu
Technical & hardware support : Manuel Goepfert

Contact : metmap@orbifly.com




SOURCES & CREDITS :

   NOAA